Portada
METAR-TAF:

METAR-TAF

Aeroports :

Illes Wake, Estats Units d'Amèrica

latitud: 19-17N, longitud: 166-39E, altitud: 4 m

Observació

L'informe es va fer fa 15 minuts, a les 18:23 UTC
Vent 12 kt del Est/Nord-Est
Temperatura 27°C
Humitat 1%
Pressió 1017 hPa
Visibilitat 10 km o més
Núvols disperses a una alçada de 1600 ft
Núvols disperses a una alçada de 2100 ft
Cel ennuvolat a una alçada de 2900 ft
Cel cobert a una alçada de 26000 ft

METAR: PWAK 231823Z AUTO 06012KT 9999 SCT016 SCT021 BKN029 OVC260 27/M34 A3002 RMK AO2 LTG DSNT W CIG 029V260 SLP172

Hora: 06:38 (18:38 UTC)

Pronòstic

L'informe es va fer fa 2 hores i 55 minuts, a les 15:43 UTC
Pronòstic vàlid del 23 a les 15 UTC al 24 a les 20 UTC
Vent 9 kt del Est
Visibilitat 10 km o més
Núvols disperses a una alçada de 1500 ft
Temporalment
l' 23 a les 15 UTC al 23 a les 20 UTC
Cel ennuvolat a una alçada de 1500 ft

TAF: PWAK 231543Z 2315/2420 08009KT 9999 SCT015 QNH2994INS TEMPO 2315/2320 BKN015 TX30/2323Z TN25/2316Z FOR MIL USE ONLY

Observacions i pronòstics meteorològics de més de 4000 aeroports (METAR i TAF).

Les estacions disponibles són els punts grocs i vermells al mapa.

Posi el ratolí al punt desitjat per veure el nom de l'estació.

Feu clic per veure les observacions i els pronòstics meteorològics.

Per canviar el mapa: feu clic els botons verds amb una creu de color negre per apropar; al botó verd amb un guió per allunyar la imatge; o en les fletxes verdes per a mapes adjacents.


METAR-TAF: